createdAt,value
2023-04-09T00:00:55.321Z,5.73
2023-04-09T00:01:55.557Z,5.72
2023-04-09T00:02:55.947Z,5.72
2023-04-09T00:03:56.275Z,5.69
2023-04-09T00:04:56.425Z,5.64
2023-04-09T00:05:56.760Z,5.59
2023-04-09T00:06:56.973Z,5.56
2023-04-09T00:07:57.282Z,5.55
2023-04-09T00:08:57.504Z,5.55
2023-04-09T00:09:57.820Z,5.55
2023-04-09T00:10:58.029Z,5.56
2023-04-09T00:11:58.357Z,5.56
2023-04-09T00:12:58.573Z,5.55
2023-04-09T00:13:58.918Z,5.54
2023-04-09T00:14:59.136Z,5.49
2023-04-09T00:15:59.474Z,5.49
2023-04-09T00:16:59.678Z,5.52
2023-04-09T00:18:00.135Z,5.59
2023-04-09T00:19:00.265Z,5.62
2023-04-09T00:20:00.474Z,5.65
2023-04-09T00:21:00.710Z,5.65
2023-04-09T00:22:01.019Z,5.70
2023-04-09T00:23:01.232Z,5.72
2023-04-09T00:24:01.579Z,5.74
2023-04-09T00:25:01.785Z,5.74
2023-04-09T00:26:02.124Z,5.74
2023-04-09T00:27:02.352Z,5.74
2023-04-09T00:28:02.697Z,5.77
2023-04-09T00:29:02.909Z,5.79
2023-04-09T00:30:03.229Z,5.84
2023-04-09T00:31:03.431Z,5.84
2023-04-09T00:32:03.868Z,5.84
2023-04-09T00:33:04.043Z,5.83
2023-04-09T00:34:04.368Z,5.80
2023-04-09T00:35:04.585Z,5.77
2023-04-09T00:36:04.863Z,5.74
2023-04-09T00:37:05.050Z,5.69
2023-04-09T00:38:05.384Z,5.64
2023-04-09T00:39:05.616Z,5.61
2023-04-09T00:40:05.841Z,5.56
2023-04-09T00:41:06.061Z,5.52
2023-04-09T00:42:06.392Z,5.47
2023-04-09T00:43:06.613Z,5.40
2023-04-09T00:44:06.965Z,5.37
2023-04-09T00:45:07.175Z,5.40
2023-04-09T00:46:07.514Z,5.41
2023-04-09T00:47:07.742Z,5.40
2023-04-09T00:48:08.060Z,5.38
2023-04-09T00:49:08.294Z,5.36
2023-04-09T00:50:08.511Z,5.34
2023-04-09T00:51:08.719Z,5.28
2023-04-09T00:52:09.045Z,5.25
2023-04-09T00:53:09.250Z,5.22
2023-04-09T00:54:09.610Z,5.20
2023-04-09T00:55:09.846Z,5.18
2023-04-09T00:56:10.057Z,5.16
2023-04-09T00:57:10.388Z,5.18
2023-04-09T00:58:10.736Z,5.16
2023-04-09T00:59:10.959Z,5.12
2023-04-09T01:00:11.189Z,5.07
2023-04-09T01:01:11.511Z,5.05
2023-04-09T01:02:11.758Z,5.04
2023-04-09T01:03:12.055Z,5.05
2023-04-09T01:04:12.298Z,5.07
2023-04-09T01:05:12.506Z,5.10
2023-04-09T01:06:12.836Z,5.05
2023-04-09T01:07:13.071Z,5.01
2023-04-09T01:08:13.292Z,4.97
2023-04-09T01:09:13.520Z,5.00
2023-04-09T01:10:13.745Z,5.00
2023-04-09T01:11:14.048Z,5.01
2023-04-09T01:12:14.386Z,5.01
2023-04-09T01:13:14.591Z,5.08
2023-04-09T01:14:14.957Z,5.08
2023-04-09T01:15:15.163Z,5.10
2023-04-09T01:16:15.523Z,5.10
2023-04-09T01:17:15.714Z,5.07
2023-04-09T01:18:16.059Z,5.01
2023-04-09T01:19:16.292Z,4.98
2023-04-09T01:20:16.519Z,4.95
2023-04-09T01:21:16.735Z,4.97
2023-04-09T01:22:17.071Z,4.98
2023-04-09T01:23:17.418Z,5.00
2023-04-09T01:24:17.637Z,5.00
2023-04-09T01:25:17.853Z,5.00
2023-04-09T01:26:18.187Z,4.98
2023-04-09T01:27:18.413Z,4.97
2023-04-09T01:28:18.745Z,4.92
2023-04-09T01:29:19.100Z,4.89
2023-04-09T01:30:19.318Z,4.92
2023-04-09T01:31:19.639Z,4.90
2023-04-09T01:32:19.981Z,4.94
2023-04-09T01:33:20.187Z,4.95
2023-04-09T01:34:20.541Z,4.95
2023-04-09T01:35:20.771Z,4.94
2023-04-09T01:36:21.092Z,4.94
2023-04-09T01:37:21.315Z,4.95
2023-04-09T01:38:21.632Z,4.92
2023-04-09T01:39:21.973Z,4.89
2023-04-09T01:40:22.217Z,4.89
2023-04-09T01:41:22.523Z,4.87
2023-04-09T01:42:22.861Z,4.86
2023-04-09T01:43:23.102Z,4.87
2023-04-09T01:44:23.348Z,4.86
2023-04-09T01:45:23.586Z,4.87
2023-04-09T01:46:23.834Z,4.87
2023-04-09T01:47:24.082Z,4.84
2023-04-09T01:48:24.280Z,4.82
2023-04-09T01:49:24.504Z,4.78
2023-04-09T01:50:24.817Z,4.82
2023-04-09T01:51:25.047Z,4.84
2023-04-09T01:52:25.356Z,4.84
2023-04-09T01:53:25.587Z,4.84
2023-04-09T01:54:25.934Z,4.86
2023-04-09T01:55:26.139Z,4.84
2023-04-09T01:56:26.491Z,4.82
2023-04-09T01:57:26.711Z,4.83
2023-04-09T01:58:26.935Z,4.86
2023-04-09T01:59:27.171Z,4.86
2023-04-09T02:00:27.443Z,4.86
2023-04-09T02:01:27.661Z,4.86
2023-04-09T02:02:28.020Z,4.84
2023-04-09T02:03:28.343Z,4.86
2023-04-09T02:04:29.533Z,4.83
2023-04-09T02:05:28.856Z,4.82
2023-04-09T02:06:29.187Z,4.79
2023-04-09T02:07:29.402Z,4.78
2023-04-09T02:08:29.734Z,4.83
2023-04-09T02:09:29.975Z,4.87
2023-04-09T02:10:30.291Z,4.86
2023-04-09T02:11:30.512Z,4.86
2023-04-09T02:12:30.839Z,4.86
2023-04-09T02:13:31.046Z,4.86
2023-04-09T02:14:31.382Z,4.84
2023-04-09T02:15:31.672Z,4.82
2023-04-09T02:16:31.855Z,4.79
2023-04-09T02:17:32.100Z,4.78
2023-04-09T02:18:32.306Z,4.74
2023-04-09T02:19:32.629Z,4.71
2023-04-09T02:20:32.870Z,4.68
2023-04-09T02:21:33.077Z,4.68
2023-04-09T02:22:33.419Z,4.67
2023-04-09T02:23:33.663Z,4.67
2023-04-09T02:24:33.981Z,4.67
2023-04-09T02:25:34.207Z,4.67
2023-04-09T02:26:34.443Z,4.66
2023-04-09T02:27:34.653Z,4.66
2023-04-09T02:28:34.986Z,4.66
2023-04-09T02:29:35.216Z,4.67
2023-04-09T02:30:35.554Z,4.70
2023-04-09T02:31:35.748Z,4.70
2023-04-09T02:32:35.956Z,4.75
2023-04-09T02:33:36.135Z,4.75
2023-04-09T02:34:36.494Z,4.71
2023-04-09T02:35:36.735Z,4.68
2023-04-09T02:36:37.063Z,4.66
2023-04-09T02:37:37.279Z,4.68
2023-04-09T02:38:37.598Z,4.74
2023-04-09T02:39:37.823Z,4.76
2023-04-09T02:40:38.052Z,4.76
2023-04-09T02:41:38.285Z,4.82
2023-04-09T02:42:38.515Z,4.83
2023-04-09T02:43:38.743Z,4.79
2023-04-09T02:44:38.997Z,4.75
2023-04-09T02:45:39.229Z,4.74
2023-04-09T02:46:39.654Z,4.68
2023-04-09T02:47:39.840Z,4.70
2023-04-09T02:48:40.183Z,4.71
2023-04-09T02:49:40.399Z,4.70
2023-04-09T02:50:40.622Z,4.68
2023-04-09T02:51:40.843Z,4.68
2023-04-09T02:52:41.070Z,4.71
2023-04-09T02:53:41.306Z,4.68
2023-04-09T02:54:41.557Z,4.66
2023-04-09T02:55:41.775Z,4.63
2023-04-09T02:56:41.993Z,4.63
2023-04-09T02:57:42.326Z,4.63
2023-04-09T02:58:42.549Z,4.63
2023-04-09T02:59:42.791Z,4.60
2023-04-09T03:00:43.029Z,4.60
2023-04-09T03:01:43.363Z,4.63
2023-04-09T03:02:43.633Z,4.66
2023-04-09T03:03:43.945Z,4.67
2023-04-09T03:04:44.043Z,4.66
2023-04-09T03:05:44.263Z,4.64
2023-04-09T03:06:44.494Z,4.66
2023-04-09T03:07:44.742Z,4.63
2023-04-09T03:08:44.965Z,4.60
2023-04-09T03:09:45.191Z,4.63
2023-04-09T03:10:45.417Z,4.63
2023-04-09T03:11:45.655Z,4.60
2023-04-09T03:12:45.872Z,4.56
2023-04-09T03:13:46.221Z,4.52
2023-04-09T03:14:46.544Z,4.48
2023-04-09T03:15:46.838Z,4.49
2023-04-09T03:16:47.106Z,4.48
2023-04-09T03:17:47.312Z,4.46
2023-04-09T03:18:47.507Z,4.45
2023-04-09T03:19:47.763Z,4.48
2023-04-09T03:20:47.964Z,4.46
2023-04-09T03:21:48.334Z,4.46
2023-04-09T03:22:48.549Z,4.45
2023-04-09T03:23:48.907Z,4.42
2023-04-09T03:24:49.147Z,4.39
2023-04-09T03:25:49.373Z,4.38
2023-04-09T03:26:49.594Z,4.34
2023-04-09T03:27:49.938Z,4.34
2023-04-09T03:28:50.592Z,4.32
2023-04-09T03:29:50.534Z,4.31
2023-04-09T03:30:50.819Z,4.30
2023-04-09T03:31:51.052Z,4.30
2023-04-09T03:32:51.332Z,4.31
2023-04-09T03:33:51.580Z,4.32
2023-04-09T03:34:51.849Z,4.34
2023-04-09T03:35:52.128Z,4.36
2023-04-09T03:36:52.391Z,4.36
2023-04-09T03:37:52.604Z,4.38
2023-04-09T03:38:53.288Z,4.34
2023-04-09T03:39:53.274Z,4.32
2023-04-09T03:40:53.500Z,4.34
2023-04-09T03:41:53.732Z,4.32
2023-04-09T03:42:53.968Z,4.32
2023-04-09T03:43:54.302Z,4.32
2023-04-09T03:44:54.526Z,4.32
2023-04-09T03:45:54.777Z,4.34
2023-04-09T03:46:55.033Z,4.36
2023-04-09T03:47:57.472Z,4.36
2023-04-09T03:48:55.553Z,4.34
2023-04-09T03:49:55.766Z,4.34
2023-04-09T03:50:55.989Z,4.34
2023-04-09T03:51:56.230Z,4.34
2023-04-09T03:52:56.489Z,4.38
2023-04-09T03:53:56.704Z,4.36
2023-04-09T03:54:57.023Z,4.34
2023-04-09T03:55:57.247Z,4.34
2023-04-09T03:56:57.494Z,4.36
2023-04-09T03:57:57.722Z,4.39
2023-04-09T03:58:57.972Z,4.38
2023-04-09T03:59:58.314Z,4.39
2023-04-09T04:00:58.542Z,4.38
2023-04-09T04:01:58.940Z,4.42
2023-04-09T04:02:59.218Z,4.42
2023-04-09T04:03:59.356Z,4.42
2023-04-09T04:04:59.571Z,4.45
2023-04-09T04:05:59.826Z,4.48
2023-04-09T04:07:00.113Z,4.46
2023-04-09T04:08:00.331Z,4.48
2023-04-09T04:09:00.569Z,4.46
2023-04-09T04:10:00.915Z,4.43
2023-04-09T04:11:01.138Z,4.40
2023-04-09T04:12:01.472Z,4.40
2023-04-09T04:13:01.789Z,4.40
2023-04-09T04:14:01.989Z,4.40
2023-04-09T04:15:02.212Z,4.45
2023-04-09T04:16:02.456Z,4.46
2023-04-09T04:17:02.692Z,4.48
2023-04-09T04:18:02.892Z,4.50
2023-04-09T04:19:03.105Z,4.52
2023-04-09T04:20:03.478Z,4.52
2023-04-09T04:21:03.681Z,4.50
2023-04-09T04:22:04.006Z,4.49
2023-04-09T04:23:04.353Z,4.49
2023-04-09T04:24:04.572Z,4.48
2023-04-09T04:25:04.810Z,4.45
2023-04-09T04:26:05.030Z,4.45
2023-04-09T04:27:05.250Z,4.42
2023-04-09T04:28:05.593Z,4.43
2023-04-09T04:29:05.847Z,4.42
2023-04-09T04:30:06.098Z,4.40
2023-04-09T04:31:06.342Z,4.36
2023-04-09T04:32:06.671Z,4.34
2023-04-09T04:33:06.900Z,4.36
2023-04-09T04:34:07.122Z,4.31
2023-04-09T04:35:07.409Z,4.27
2023-04-09T04:36:14.687Z,4.27
2023-04-09T04:37:07.848Z,4.22
2023-04-09T04:38:08.176Z,4.21
2023-04-09T04:39:08.402Z,4.20
2023-04-09T04:40:08.741Z,4.22
2023-04-09T04:41:08.947Z,4.21
2023-04-09T04:42:09.290Z,4.18
2023-04-09T04:43:09.513Z,4.22
2023-04-09T04:44:09.836Z,4.20
2023-04-09T04:45:10.091Z,4.22
2023-04-09T04:46:10.347Z,4.22
2023-04-09T04:47:10.533Z,4.21
2023-04-09T04:48:10.870Z,4.20
2023-04-09T04:49:11.089Z,4.18
2023-04-09T04:50:11.435Z,4.14
2023-04-09T04:51:11.680Z,4.13
2023-04-09T04:52:11.933Z,4.12
2023-04-09T04:53:12.122Z,4.07
2023-04-09T04:54:12.448Z,4.07
2023-04-09T04:55:12.709Z,4.07
2023-04-09T04:56:12.934Z,4.10
2023-04-09T04:57:13.160Z,4.14
2023-04-09T04:58:13.499Z,4.16
2023-04-09T04:59:13.719Z,4.20
2023-04-09T05:00:14.085Z,4.22
2023-04-09T05:01:14.330Z,4.27
2023-04-09T05:02:14.644Z,4.31
2023-04-09T05:03:15.028Z,4.36
2023-04-09T05:04:15.158Z,4.34
2023-04-09T05:05:15.403Z,4.34
2023-04-09T05:06:15.630Z,4.38
2023-04-09T05:07:15.858Z,4.40
2023-04-09T05:08:16.188Z,4.45
2023-04-09T05:09:16.525Z,4.46
2023-04-09T05:10:16.878Z,4.49
2023-04-09T05:11:17.095Z,4.52
2023-04-09T05:12:17.418Z,4.53
2023-04-09T05:13:17.643Z,4.56
2023-04-09T05:14:17.876Z,4.60
2023-04-09T05:15:18.104Z,4.58
2023-04-09T05:16:18.382Z,4.61
2023-04-09T05:17:18.600Z,4.66
2023-04-09T05:18:18.932Z,4.71
2023-04-09T05:19:19.132Z,4.82
2023-04-09T05:20:19.468Z,4.83
2023-04-09T05:21:19.696Z,4.89
2023-04-09T05:22:20.044Z,4.90
2023-04-09T05:23:20.302Z,4.94
2023-04-09T05:24:20.519Z,4.98
2023-04-09T05:25:20.760Z,5.04
2023-04-09T05:26:20.983Z,5.12
2023-04-09T05:27:21.201Z,5.04
2023-04-09T05:28:21.555Z,5.05
2023-04-09T05:29:21.757Z,5.07
2023-04-09T05:30:22.086Z,5.12
2023-04-09T05:31:22.294Z,5.15
2023-04-09T05:32:22.648Z,5.19
2023-04-09T05:33:22.905Z,5.23
2023-04-09T05:34:23.209Z,5.26
2023-04-09T05:35:23.434Z,5.28
2023-04-09T05:36:23.747Z,5.19
2023-04-09T05:37:23.946Z,5.15
2023-04-09T05:38:24.271Z,5.16
2023-04-09T05:39:24.499Z,5.10
2023-04-09T05:40:24.730Z,5.10
2023-04-09T05:41:24.957Z,5.16
2023-04-09T05:42:25.272Z,5.22
2023-04-09T05:43:25.485Z,5.16
2023-04-09T05:44:25.815Z,5.01
2023-04-09T05:45:26.029Z,4.97
2023-04-09T05:46:26.263Z,4.90
2023-04-09T05:47:26.478Z,4.84
2023-04-09T05:48:26.689Z,4.84
2023-04-09T05:49:26.877Z,4.87
2023-04-09T05:50:27.206Z,4.94
2023-04-09T05:51:27.415Z,4.86
2023-04-09T05:52:27.738Z,4.89
2023-04-09T05:53:27.939Z,4.86
2023-04-09T05:54:28.139Z,4.84
2023-04-09T05:55:28.356Z,4.82
2023-04-09T05:56:28.576Z,4.83
2023-04-09T05:57:28.781Z,4.87
2023-04-09T05:58:29.106Z,4.89
2023-04-09T05:59:29.311Z,4.95
2023-04-09T06:00:29.568Z,5.02
2023-04-09T06:01:29.772Z,5.12
2023-04-09T06:02:30.128Z,5.22
2023-04-09T06:03:30.460Z,5.31
2023-04-09T06:04:30.631Z,5.38
2023-04-09T06:05:30.848Z,5.46
2023-04-09T06:06:31.045Z,5.41
2023-04-09T06:07:31.243Z,5.38
2023-04-09T06:08:31.575Z,5.36
2023-04-09T06:09:31.781Z,5.43
2023-04-09T06:10:32.112Z,5.54
2023-04-09T06:11:32.314Z,5.62
2023-04-09T06:12:32.645Z,5.70
2023-04-09T06:13:32.856Z,5.74
2023-04-09T06:14:33.259Z,5.81
2023-04-09T06:15:33.456Z,5.88
2023-04-09T06:16:33.745Z,5.99
2023-04-09T06:17:34.073Z,6.05
2023-04-09T06:18:34.373Z,6.06
2023-04-09T06:19:34.576Z,6.09
2023-04-09T06:20:34.917Z,6.15
2023-04-09T06:21:35.108Z,6.22
2023-04-09T06:22:35.414Z,6.28
2023-04-09T06:23:35.723Z,6.35
2023-04-09T06:24:35.923Z,6.44
2023-04-09T06:25:36.128Z,6.44
2023-04-09T06:26:36.331Z,6.47
2023-04-09T06:27:36.536Z,6.54
2023-04-09T06:28:36.830Z,6.60
2023-04-09T06:29:37.026Z,6.67
2023-04-09T06:30:37.402Z,6.68
2023-04-09T06:31:37.686Z,6.77
2023-04-09T06:32:47.251Z,6.82
2023-04-09T06:33:39.081Z,6.86
2023-04-09T06:34:38.274Z,6.82
2023-04-09T06:35:38.500Z,6.75
2023-04-09T06:36:38.770Z,6.74
2023-04-09T06:37:38.956Z,6.78
2023-04-09T06:38:39.277Z,6.86
2023-04-09T06:39:42.487Z,6.95
2023-04-09T06:40:40.767Z,6.97
2023-04-09T06:41:39.981Z,7.07
2023-04-09T06:42:40.231Z,7.18
2023-04-09T06:43:40.462Z,7.26
2023-04-09T06:44:40.712Z,7.37
2023-04-09T06:45:41.255Z,7.50
2023-04-09T06:46:41.263Z,7.62
2023-04-09T06:47:41.423Z,7.74
2023-04-09T06:48:41.720Z,7.93
2023-04-09T06:49:41.934Z,8.16
2023-04-09T06:50:42.129Z,8.79
2023-04-09T06:51:42.310Z,9.19
2023-04-09T06:52:42.510Z,9.33
2023-04-09T06:53:42.734Z,9.40
2023-04-09T06:54:42.876Z,9.30
2023-04-09T06:55:43.076Z,9.76
2023-04-09T06:56:43.263Z,10.31
2023-04-09T06:57:43.425Z,10.49
2023-04-09T06:58:43.729Z,10.97
2023-04-09T06:59:43.902Z,11.15
2023-04-09T07:00:44.120Z,11.20
2023-04-09T07:01:44.371Z,10.95
2023-04-09T07:02:44.790Z,10.82
2023-04-09T07:03:44.765Z,10.75
2023-04-09T07:04:45.027Z,10.82
2023-04-09T07:05:45.214Z,11.15
2023-04-09T07:06:45.364Z,11.45
2023-04-09T07:07:45.634Z,11.93
2023-04-09T07:08:45.797Z,12.26
2023-04-09T07:09:46.153Z,12.03
2023-04-09T07:10:46.146Z,12.02
2023-04-09T07:11:46.304Z,11.81
2023-04-09T07:12:46.469Z,11.35
2023-04-09T07:13:46.619Z,11.08
2023-04-09T07:14:46.773Z,11.41
2023-04-09T07:15:46.974Z,11.93
2023-04-09T07:16:47.107Z,12.18
2023-04-09T07:17:47.321Z,12.93
2023-04-09T07:18:47.439Z,12.73
2023-04-09T07:19:47.697Z,12.81
2023-04-09T07:20:47.863Z,12.88
2023-04-09T07:21:48.025Z,12.81
2023-04-09T07:22:48.166Z,13.31
2023-04-09T07:23:48.316Z,13.13
2023-04-09T07:24:48.442Z,12.61
2023-04-09T07:25:48.729Z,12.05
2023-04-09T07:26:50.512Z,11.83
2023-04-09T07:27:49.059Z,11.76
2023-04-09T07:28:49.219Z,11.53
2023-04-09T07:29:49.369Z,11.88
2023-04-09T07:30:49.513Z,12.94
2023-04-09T07:31:49.693Z,13.78
2023-04-09T07:32:50.079Z,13.89
2023-04-09T07:33:50.149Z,14.00
2023-04-09T07:34:50.242Z,13.89
2023-04-09T07:35:50.583Z,13.46
2023-04-09T07:36:54.359Z,13.05
2023-04-09T07:37:50.820Z,12.94
2023-04-09T07:38:51.251Z,13.20
2023-04-09T07:39:51.153Z,12.70
2023-04-09T07:40:51.296Z,12.40
2023-04-09T07:41:51.439Z,12.43
2023-04-09T07:42:51.556Z,12.39
2023-04-09T07:43:51.806Z,12.69
2023-04-09T07:44:51.952Z,12.88
2023-04-09T07:45:52.194Z,13.80
2023-04-09T07:46:52.377Z,14.44
2023-04-09T07:47:52.572Z,14.38
2023-04-09T07:48:52.983Z,14.44
2023-04-09T07:49:52.818Z,14.43
2023-04-09T07:50:53.010Z,13.79
2023-04-09T07:51:53.140Z,14.07
2023-04-09T07:52:53.268Z,14.44
2023-04-09T07:53:53.386Z,14.79
2023-04-09T07:54:53.491Z,15.25
2023-04-09T07:55:53.769Z,15.67
2023-04-09T07:56:53.895Z,15.69
2023-04-09T07:57:54.012Z,15.44
2023-04-09T07:58:54.350Z,15.59
2023-04-09T07:59:54.247Z,15.80
2023-04-09T08:00:54.358Z,16.17
2023-04-09T08:01:54.526Z,16.37
2023-04-09T08:02:55.080Z,16.87
2023-04-09T08:03:54.980Z,16.91
2023-04-09T08:04:55.034Z,16.68
2023-04-09T08:05:55.054Z,16.31
2023-04-09T08:06:55.163Z,15.80
2023-04-09T08:07:55.345Z,15.83
2023-04-09T08:08:55.432Z,15.67
2023-04-09T08:09:55.645Z,15.84
2023-04-09T08:10:55.742Z,15.98
2023-04-09T08:11:55.857Z,16.51
2023-04-09T08:12:56.035Z,16.64
2023-04-09T08:13:56.153Z,16.49
2023-04-09T08:14:56.218Z,16.16
2023-04-09T08:15:56.448Z,15.98
2023-04-09T08:16:56.559Z,15.98
2023-04-09T08:17:56.655Z,16.10
2023-04-09T08:18:56.686Z,16.31
2023-04-09T08:19:56.888Z,15.70
2023-04-09T08:20:56.963Z,15.12
2023-04-09T08:21:57.056Z,14.68
2023-04-09T08:22:57.144Z,14.34
2023-04-09T08:23:57.353Z,14.37
2023-04-09T08:24:57.430Z,14.73
2023-04-09T08:25:57.639Z,15.32
2023-04-09T08:26:57.759Z,16.02
2023-04-09T08:27:57.843Z,15.85
2023-04-09T08:28:57.948Z,15.50
2023-04-09T08:29:58.038Z,15.57
2023-04-09T08:30:58.157Z,15.66
2023-04-09T08:31:58.290Z,15.96
2023-04-09T08:32:58.416Z,16.66
2023-04-09T08:33:58.496Z,16.54
2023-04-09T08:34:58.578Z,16.09
2023-04-09T08:35:59.228Z,16.08
2023-04-09T08:36:58.873Z,16.02
2023-04-09T08:37:58.993Z,16.29
2023-04-09T08:38:59.078Z,16.34
2023-04-09T08:39:59.176Z,16.69
2023-04-09T08:40:59.268Z,17.09
2023-04-09T08:41:59.383Z,17.66
2023-04-09T08:42:59.463Z,18.27
2023-04-09T08:44:00.105Z,18.66
2023-04-09T08:44:59.669Z,18.89
2023-04-09T08:45:59.781Z,19.11
2023-04-09T08:46:59.850Z,18.96
2023-04-09T08:48:00.046Z,18.67
2023-04-09T08:49:00.026Z,18.28
2023-04-09T08:50:00.211Z,18.19
2023-04-09T08:51:00.253Z,17.52
2023-04-09T08:52:01.110Z,17.19
2023-04-09T08:53:00.404Z,16.79
2023-04-09T08:54:03.242Z,16.28
2023-04-09T08:55:00.705Z,16.13
2023-04-09T08:56:00.834Z,15.76
2023-04-09T08:57:00.893Z,15.67
2023-04-09T08:58:00.993Z,15.75
2023-04-09T08:59:01.087Z,15.98
2023-04-09T09:00:01.201Z,16.57
2023-04-09T09:01:01.366Z,17.23
2023-04-09T09:02:01.695Z,17.82
2023-04-09T09:03:01.742Z,17.59
2023-04-09T09:04:01.763Z,17.59
2023-04-09T09:05:01.768Z,17.90
2023-04-09T09:06:01.859Z,18.21
2023-04-09T09:07:02.013Z,18.28
2023-04-09T09:08:02.086Z,18.46
2023-04-09T09:09:02.167Z,18.63
2023-04-09T09:10:02.305Z,18.88
2023-04-09T09:11:02.360Z,19.19
2023-04-09T09:12:02.443Z,19.09
2023-04-09T09:13:02.494Z,18.76
2023-04-09T09:14:02.555Z,18.46
2023-04-09T09:15:02.649Z,18.60
2023-04-09T09:16:02.737Z,18.41
2023-04-09T09:17:02.814Z,18.46
2023-04-09T09:18:02.889Z,18.37
2023-04-09T09:19:02.900Z,18.71
2023-04-09T09:20:02.975Z,19.12
2023-04-09T09:21:03.038Z,19.37
2023-04-09T09:22:03.089Z,19.74
2023-04-09T09:23:03.131Z,19.89
2023-04-09T09:24:03.161Z,19.92
2023-04-09T09:25:03.196Z,20.36
2023-04-09T09:26:03.264Z,20.18
2023-04-09T09:27:03.313Z,19.97
2023-04-09T09:28:03.392Z,19.57
2023-04-09T09:29:03.420Z,19.81
2023-04-09T09:30:03.474Z,20.03
2023-04-09T09:31:03.603Z,19.82
2023-04-09T09:32:03.672Z,19.60
2023-04-09T09:33:03.709Z,19.37
2023-04-09T09:34:03.764Z,18.98
2023-04-09T09:35:04.798Z,18.76
2023-04-09T09:36:03.943Z,18.78
2023-04-09T09:37:03.966Z,18.42
2023-04-09T09:38:04.021Z,18.36
2023-04-09T09:39:04.102Z,18.12
2023-04-09T09:40:04.118Z,18.26
2023-04-09T09:41:04.176Z,18.68
2023-04-09T09:42:04.208Z,19.32
2023-04-09T09:43:04.262Z,19.92
2023-04-09T09:44:04.307Z,20.32
2023-04-09T09:45:04.383Z,19.92
2023-04-09T09:46:04.474Z,19.90
2023-04-09T09:47:04.632Z,19.81
2023-04-09T09:48:04.575Z,19.92
2023-04-09T09:49:04.586Z,20.26
2023-04-09T09:50:04.702Z,20.77
2023-04-09T09:51:04.709Z,21.25
2023-04-09T09:52:04.789Z,21.53
2023-04-09T09:53:04.867Z,21.60
2023-04-09T09:54:04.852Z,21.37
2023-04-09T09:55:04.896Z,21.08
2023-04-09T09:56:05.032Z,21.20
2023-04-09T09:57:04.928Z,21.47
2023-04-09T09:58:04.960Z,21.75
2023-04-09T09:59:05.008Z,21.81
2023-04-09T10:00:04.992Z,21.99
2023-04-09T10:01:05.049Z,21.89
2023-04-09T10:02:05.117Z,21.13
2023-04-09T10:03:05.350Z,20.29
2023-04-09T10:04:05.215Z,19.78
2023-04-09T10:05:05.213Z,20.12
2023-04-09T10:06:05.280Z,20.44
2023-04-09T10:07:05.329Z,20.77
2023-04-09T10:08:05.335Z,21.11
2023-04-09T10:09:05.369Z,21.05
2023-04-09T10:10:05.413Z,20.98
2023-04-09T10:11:05.430Z,21.03
2023-04-09T10:12:05.433Z,20.90
2023-04-09T10:13:05.449Z,20.78
2023-04-09T10:14:05.476Z,20.80
2023-04-09T10:15:05.499Z,20.89
2023-04-09T10:16:05.592Z,20.92
2023-04-09T10:17:05.579Z,21.05
2023-04-09T10:18:05.718Z,21.23
2023-04-09T10:19:05.701Z,21.32
2023-04-09T10:20:05.734Z,21.37
2023-04-09T10:21:05.811Z,21.30
2023-04-09T10:22:05.832Z,21.32
2023-04-09T10:23:05.854Z,20.89
2023-04-09T10:24:05.878Z,20.95
2023-04-09T10:25:05.856Z,20.73
2023-04-09T10:26:05.924Z,21.03
2023-04-09T10:27:05.930Z,21.56
2023-04-09T10:28:05.945Z,21.80
2023-04-09T10:29:05.949Z,21.54
2023-04-09T10:30:05.975Z,21.44
2023-04-09T10:31:06.057Z,21.44
2023-04-09T10:32:06.036Z,21.11
2023-04-09T10:33:06.108Z,21.32
2023-04-09T10:34:06.084Z,21.25
2023-04-09T10:35:06.090Z,21.69
2023-04-09T10:36:06.147Z,22.01
2023-04-09T10:37:13.109Z,21.80
2023-04-09T10:38:06.220Z,21.22
2023-04-09T10:39:06.227Z,21.14
2023-04-09T10:40:06.231Z,20.98
2023-04-09T10:41:06.245Z,21.04
2023-04-09T10:42:06.287Z,21.23
2023-04-09T10:43:06.310Z,21.26
2023-04-09T10:44:06.333Z,21.28
2023-04-09T10:45:06.354Z,21.26
2023-04-09T10:46:06.443Z,21.22
2023-04-09T10:47:06.395Z,21.47
2023-04-09T10:48:06.503Z,21.48
2023-04-09T10:49:06.497Z,21.45
2023-04-09T10:50:06.532Z,21.72
2023-04-09T10:51:06.604Z,22.15
2023-04-09T10:52:07.421Z,22.62
2023-04-09T10:53:06.609Z,22.67
2023-04-09T10:54:06.605Z,22.59
2023-04-09T10:55:06.618Z,22.96
2023-04-09T10:56:06.660Z,23.17
2023-04-09T10:57:06.634Z,22.98
2023-04-09T10:58:07.540Z,22.62
2023-04-09T10:59:06.628Z,22.38
2023-04-09T11:00:06.644Z,22.56
2023-04-09T11:01:06.666Z,22.74
2023-04-09T11:02:06.857Z,22.99
2023-04-09T11:03:06.873Z,23.47
2023-04-09T11:04:07.378Z,23.74
2023-04-09T11:05:06.807Z,24.21
2023-04-09T11:06:06.809Z,24.31
2023-04-09T11:07:06.794Z,24.50
2023-04-09T11:08:06.801Z,24.99
2023-04-09T11:09:06.793Z,25.24
2023-04-09T11:10:06.817Z,25.48
2023-04-09T11:11:06.820Z,24.97
2023-04-09T11:12:06.805Z,24.10
2023-04-09T11:13:06.816Z,23.42
2023-04-09T11:14:06.819Z,23.59
2023-04-09T11:15:06.823Z,23.10
2023-04-09T11:16:07.287Z,22.67
2023-04-09T11:17:06.833Z,22.86
2023-04-09T11:18:06.863Z,22.52
2023-04-09T11:19:06.840Z,22.81
2023-04-09T11:20:06.805Z,22.76
2023-04-09T11:21:06.779Z,22.93
2023-04-09T11:22:07.932Z,23.20
2023-04-09T11:23:06.991Z,23.63
2023-04-09T11:24:06.979Z,23.33
2023-04-09T11:25:06.973Z,23.44
2023-04-09T11:26:06.948Z,23.59
2023-04-09T11:27:07.079Z,23.95
2023-04-09T11:28:07.082Z,24.03
2023-04-09T11:29:07.070Z,23.45
2023-04-09T11:30:07.061Z,23.11
2023-04-09T11:31:07.223Z,23.40
2023-04-09T11:32:07.152Z,23.63
2023-04-09T11:33:07.186Z,23.20
2023-04-09T11:34:07.127Z,22.73
2023-04-09T11:35:07.119Z,22.67
2023-04-09T11:36:07.214Z,22.95
2023-04-09T11:37:07.167Z,22.70
2023-04-09T11:38:07.161Z,23.25
2023-04-09T11:39:07.160Z,23.58
2023-04-09T11:40:07.138Z,23.71
2023-04-09T11:41:07.122Z,24.16
2023-04-09T11:42:07.115Z,24.66
2023-04-09T11:43:07.119Z,25.04
2023-04-09T11:44:07.106Z,24.71
2023-04-09T11:45:07.108Z,24.46
2023-04-09T11:46:07.102Z,24.28
2023-04-09T11:47:07.135Z,24.09
2023-04-09T11:48:07.154Z,24.22
2023-04-09T11:49:07.146Z,24.65
2023-04-09T11:50:07.130Z,25.06
2023-04-09T11:51:08.104Z,25.30
2023-04-09T11:52:07.135Z,25.30
2023-04-09T11:53:09.288Z,24.99
2023-04-09T11:54:07.171Z,24.74
2023-04-09T11:55:07.189Z,24.61
2023-04-09T11:56:07.234Z,24.71
2023-04-09T11:57:07.264Z,24.71
2023-04-09T11:58:07.240Z,24.44
2023-04-09T11:59:07.236Z,24.82
2023-04-09T12:00:07.240Z,24.31
2023-04-09T12:01:07.221Z,24.07
2023-04-09T12:02:07.322Z,23.84
2023-04-09T12:03:07.554Z,23.82
2023-04-09T12:04:07.456Z,23.74
2023-04-09T12:05:07.400Z,24.04
2023-04-09T12:06:07.365Z,24.28
2023-04-09T12:07:07.365Z,23.62
2023-04-09T12:08:07.368Z,23.99
2023-04-09T12:09:07.350Z,24.38
2023-04-09T12:10:07.363Z,24.85
2023-04-09T12:11:07.416Z,25.06
2023-04-09T12:12:07.429Z,25.36
2023-04-09T12:13:07.436Z,24.82
2023-04-09T12:14:07.442Z,24.81
2023-04-09T12:15:07.462Z,24.78
2023-04-09T12:16:07.523Z,25.00
2023-04-09T12:17:07.520Z,25.49
2023-04-09T12:18:07.600Z,25.73
2023-04-09T12:19:07.617Z,25.85
2023-04-09T12:20:07.713Z,26.16
2023-04-09T12:21:07.701Z,26.04
2023-04-09T12:22:07.780Z,25.37
2023-04-09T12:23:07.810Z,25.56
2023-04-09T12:24:07.790Z,25.83
2023-04-09T12:25:07.773Z,25.76
2023-04-09T12:26:07.773Z,25.66
2023-04-09T12:27:07.781Z,25.21
2023-04-09T12:28:07.763Z,25.25
2023-04-09T12:29:07.788Z,25.43
2023-04-09T12:30:07.851Z,25.95
2023-04-09T12:31:07.806Z,26.10
2023-04-09T12:32:07.901Z,25.95
2023-04-09T12:33:10.709Z,25.95
2023-04-09T12:34:07.856Z,25.36
2023-04-09T12:35:07.855Z,25.11
2023-04-09T12:36:07.866Z,24.59
2023-04-09T12:37:07.865Z,24.96
2023-04-09T12:38:07.854Z,25.37
2023-04-09T12:39:07.847Z,25.68
2023-04-09T12:40:07.829Z,25.49
2023-04-09T12:41:07.812Z,25.70
2023-04-09T12:42:07.844Z,25.96
2023-04-09T12:43:07.842Z,25.80
2023-04-09T12:44:07.863Z,25.86
2023-04-09T12:45:07.857Z,25.68
2023-04-09T12:46:07.960Z,25.36
2023-04-09T12:47:07.972Z,25.16
2023-04-09T12:48:08.000Z,25.40
2023-04-09T12:49:08.005Z,25.70
2023-04-09T12:50:08.006Z,26.06
2023-04-09T12:51:08.008Z,25.62
2023-04-09T12:52:08.013Z,25.63
2023-04-09T12:53:08.014Z,25.48
2023-04-09T12:54:08.023Z,24.56
2023-04-09T12:55:08.045Z,23.96
2023-04-09T12:56:08.024Z,23.94
2023-04-09T12:57:08.063Z,24.34
2023-04-09T12:58:08.066Z,24.88
2023-04-09T12:59:08.081Z,24.94
2023-04-09T13:00:08.084Z,24.78
2023-04-09T13:01:08.156Z,24.88
2023-04-09T13:02:08.358Z,24.81
2023-04-09T13:03:08.325Z,24.84
2023-04-09T13:04:08.370Z,25.11
2023-04-09T13:05:08.311Z,25.21
2023-04-09T13:06:08.304Z,25.43
2023-04-09T13:07:08.321Z,25.71
2023-04-09T13:08:08.325Z,26.08
2023-04-09T13:09:08.329Z,26.41